woensdag 12 december 2018 | Home | Bestenlijsten | Bestenlijsten NL | Calculator | Nieuws | Records | Uitslagen | Videos | Wedstrijden | VZA Ranglijsten | Weer |
 
 
Recent nieuws meer nieuws
05-12: Hardloopsprokkels
23-11: Warmathon
16-11: Aggrey Agaba oppermachtig in 51e Mosselloop
13-11: Kustmarathon kan volgend jaar weer terug naar oud parcours
12-11: Levensduur van sporthorloges
10-11: Aggrey Agaba klopt Pleijte en Harmes in Mosselloop
Wedstrijdagenda meer wedstrijden
vr 14-12: Kanjerloop Goes
zo 16-12: 13e Spark marathon Spijkenisse
za 22-12: Natuurloop Axel
za 22-12: 19e Aagtekerke Run
wo 26-12: Kerstloop Dishoek
do 27-12: Snertloop Arnemuiden
za 29-12: Eindejaarscross Axel
za 29-12: Stratenloop Menheerse Middelharnis
ma 31-12: Tankloop Westkapelle
ma 31-12: 2e Natuurloop Nieuwvliet
vr 04-01: Ondoloop Sint Laurens
za 05-01: Jeff Thuy Memorial Heikant
za 05-01: 58e Wallenloop Goes
zo 06-01: Scheidsrechtersloop Vlissingen
za 12-01: Steense Rattenloop Sint Jansteen
za 12-01: 47e Deltacross Westenschouwen
Recente uitslagen meer uitslagen
zo 09-12: Jules Unlimitedloop Breskens
za 08-12: Halve Marathon Terneuzen (112)
za 01-12: 26e Inkelcross Kruiningen (149)
zo 25-11: 19e Zakloop Nisse (588)
za 24-11: 33e Elderschanscross Aardenburg (138)
za 17-11: 18e Hobbeldebobbelloop Zoutelande (314)
zo 11-11: 1e Natuurloop Retranchement (60)
za 10-11: 51e Mosselloop Westenschouwen (286)
za 10-11: Jeff Thuy Memorial Heikant (100)
zo 04-11: 8e Trail By The Sea Renesse (416)
za 03-11: Appelloop Axel (168)
za 03-11: 33e Moerschanscross Hulst (138)
 
Zoek tenminste met 3 tekens van wedstrijd, datum, plaats of atleet
Kreekloop
Terneuzen, woensdag 27 augustus 2014 - Organisatie: Scheldesport
9.2 km
PltsNaam
Tijdkm/umin/km
1  Mark VerhageZaamslag32.16Mse   17.107  3:30
2  Erwin van den BroekeAxel32.32M35   16.967  3:32
3  Erik GoossenTerneuzen32.34M40   16.950  3:32
4  Adriaan WielesTerneuzen33.55M45   16.275  3:41
5  Geert WaelputVogelwaarde34.33M40   15.977  3:45
6  Frank van den BrandenSint Jansteen35.05M55   15.734  3:49
7  Pieter PladdetTerneuzen35.20M35   15.623  3:50
8  Michael den HamerHoek35.55M35   15.369  3:54
9  Sander van DoornTerneuzen36.35Mse   15.089  3:59
10  Peter DeclerckWaarschoot37.36M40   14.681  4:05
11  Pascal de GraeveWestdorpe39.25M45   14.004  4:17
12  Joakim Van GasseSint-Pauwels39.41Mse   13.910  4:19
13  Gino DhanisSint Jansteen40.00M50   13.800  4:21
14  Rudi de CaluweSas van Gent40.00M55   13.800  4:21
15  Jaap van der VeenTerneuzen40.05M45   13.771  4:21
16  Theo RoelsKloosterzande40.31M55   13.624  4:24
17  Johnny DoomsTerneuzen40.43M60   13.557  4:26
18  Erik BollemanAxel41.17M45   13.371  4:29
19  Jan van OpdurpEindhoven41.25Mse   13.328  4:30
20  Marlon RoelsTerneuzen41.25M40   13.328  4:30
21  Philip BraemVogelwaarde41.35M50   13.275  4:31
22  Myrthe FaroBreskens41.36Vse   13.269  4:31
23  Sjakkie van den BroekeHoek41.40M45   13.248  4:32
24  Stefan van DammeTerneuzen42.41Mse   12.932  4:38
25  Wim BakkerTerneuzen43.05M60   12.812  4:41
26  Leon van BavinchovenTerneuzen43.05M45   12.812  4:41
27  Jacques ZamanTerneuzen44.22M50   12.442  4:49
28  Jean-Pierre NoletAxel44.31M45   12.400  4:50
29  Frans VerwilligenHulst44.52M55   12.303  4:53
30  Corina van de WegePhilippine45.15V50   12.199  4:55
31  Eric DielemanTerneuzen45.18M35   12.185  4:55
32  Jos van GrembergheStekene45.41M55   12.083  4:58
33  Nadia BleyenbergNieuw-Namen46.10Vse   11.957  5:01
34  Alex van LeuvenSint Jansteen46.27M50   11.884  5:03
35  Marianne KnijffPhilippine46.57V50   11.757  5:06
36  Ron AbuysKloosterzande47.38M70   11.589  5:11
37  Suus DuerinkTerneuzen47.57V55   11.512  5:13
38  Dirk RoodzantAxel47.59M50   11.504  5:13
39  Rudy van de VeldeWachtebeke50.10M50   11.003  5:27
40  Marion GoossenTerneuzen51.07V40   10.799  5:33
41  Leo HoekmaHulst52.40M60   10.481  5:43
42  Irene GoethalsOostakker53.30M65   10.318  5:49
43  Jack de JongeTerneuzen53.46M40   10.267  5:51
44  Monique AdriaanseTerneuzen54.18V45   10.166  5:54
45  Marieke van HeckeTerneuzen54.35Vse   10.113  5:56
46  Mirjam SimonsTerneuzen56.29V35   9.773  6:08
47  Linda KielTerneuzen58.43V45   9.401  6:23
Mannen: 37 (78.72%) => M35=4 - M40=5 - M45=7 - M50=6 - M55=5 - M60=3 - M65=1 - M70=1 - Mse=5
Vrouwen: 10 (21.28%) => V35=1 - V40=1 - V45=2 - V50=2 - V55=1 - Vse=3

Overzicht Top3, winnares en aantal deelnemers in eerdere jaren

JaarWinnaarTijd2eTijd 3eTijdWinnaresTijd#
2015Mark Verhage33:22Erwin van den Broeke33:52Pieter Pladdet34:10Nadia Bleyenberg45:4141
2014Mark Verhage32:16Erwin van den Broeke32:32Erik Goossen32:34Myrthe Faro41:3647

5.2 km
PltsNaam
Tijdkm/umin/km
1  Gunter D'HondtRonse17.59M35   17.349  3:28
2  Martijn KoxWestdorpe18.52M35   16.537  3:38
3  Dennis FlorussenTerneuzen19.45M40   15.797  3:48
4  Alwin de ZeeuwTerneuzen20.15M40   15.407  3:54
5  Shirley KerkhoveZuiddorpe20.30Vse   15.220  3:57
6  Albert PlatteeuwTerneuzen20.50M45   14.976  4:00
7  Alwin BollemanAxel21.09Mse   14.752  4:04
8  Evert KuijkTerneuzen21.25M45   14.568  4:07
9  Willem FaroBreskens22.07M55   14.107  4:15
10  Patrick van de VeireBoekhoute22.24M55   13.929  4:18
11  Melissa Van EelveltBelsele23.24Vse   13.333  4:30
12  Pascal RikersSas van Gent23.32M40   13.258  4:32
13  Ronald RoctusTerneuzen24.06M50   12.946  4:38
14  Fiona ReijersTerneuzen24.11V35   12.901  4:39
15  Vicky HermansTerneuzen24.32Vse   12.717  4:43
16  Arno de KortTerneuzen24.49M40   12.572  4:46
17  Corine de JongeTerneuzen25.11Vse   12.389  4:51
18  Liesbeth HagenaarsTerneuzen25.13V50   12.373  4:51
19  GrĂ© HendriksTerneuzen25.34V60   12.203  4:55
20  Patrick SuijTerneuzen27.37M50   11.298  5:19
21  Petra UlijnTerneuzen27.41V40   11.270  5:19
22  Cecile DielemanTerneuzen28.16V45   11.038  5:26
23  Willem-Jan de KoeyerAxel28.43M65   10.865  5:31
24  Tonny StrijdonkTerneuzen29.13M65   10.679  5:37
25  Ingrid JonesTerneuzen29.23V40   10.618  5:39
26  Samantha van DoornTerneuzen29.35Vse   10.546  5:41
27  Nathalie De SomerTerneuzen29.36V45   10.541  5:42
28  Marga KuijpersTerneuzen29.43V55   10.499  5:43
29  Danielle van der KooiTerneuzen29.45V40   10.487  5:43
30  Dominique De MeySint-Niklaas30.40V50   10.174  5:54
31  Roland de BockWestdorpe31.23M55   9.942  6:02
32  Jack FolkersmaTerneuzen32.21M45   9.645  6:13
33  Sabina van der HooftTerneuzen32.31V45   9.595  6:15
34  Greta de VylderSint-Gillis-Waas32.54V65   9.483  6:20
35  Arsene Van LaekenAssenede34.07M60   9.145  6:34
36  Ingeborg KieboomTerneuzen35.08V45   8.880  6:45
Mannen: 18 (50%) => M35=2 - M40=4 - M45=3 - M50=2 - M55=3 - M60=1 - M65=2 - Mse=1
Vrouwen: 18 (50%) => V35=1 - V40=3 - V45=4 - V50=2 - V55=1 - V60=1 - V65=1 - Vse=5

Overzicht Top3, winnares en aantal deelnemers in eerdere jaren

JaarWinnaarTijd2eTijd 3eTijdWinnaresTijd#
2017Sander d'Hont16:38Robert Lafertin19:50Omar Hillaert20:22Manon Wakker26:4824
2016Sander d'Hont17:04Erwin van de Broeke17:37Ben van Vliet20:37Stefanie van de Visser24:5631
2015Sander d'Hont17:19Gunter D'Hondt17:48Dennis Florussen19:44Fiona Reijers24:2123
2014Gunter D'Hondt17:59Martijn Kox18:52Dennis Florussen19:45Shirley Kerkhove20:3036


Snelheid en tempo zijn berekend op de vermelde afstand. Bij een onjuiste afstand wijken deze uiteraard af!

Fouten melden via info@atletiekzeeland.nl Categorie fout? Mail dan geboortedatum. (geldt alleen voor Zeeuwen)

De server had 0.104 seconden nodig om deze lijst met 83 prestaties samen te stellen.

Terug naar boven

Vorige uitslagen
DatumWedstrijdPlaatsVereniging Hits
29-08-2018 KreekloopTerneuzenScheldesport0
30-08-2017 KreekloopTerneuzenScheldesport0
31-08-2016 KreekloopTerneuzenScheldesport382
26-08-2015 KreekloopTerneuzenScheldesport489
26-08-2009 KreekloopTerneuzenScheldesport1535
27-08-2008 KreekloopTerneuzenScheldesport720
29-08-2007 KreekloopTerneuzenScheldesport1141

 
Laatste reacties:
Jan Roose: Hardloopsprokkels..
Jan Roose: Warmathon..
Jan Roose: Warmathon..
Recente Zeeuwse prestaties meer prestaties
09-12: 30e Bruggenloop Rotterdam (85)
02-12: Surpriseloop Halsteren (6)
25-11: Halve Marathon Tarragona (1)
25-11: Tis (voor) Niks Loop Geldrop (2)
18-11: 35e Zevenheuvelenloop Nijmegen (79)
18-11: Marathon Kasterlee (3)
18-11: Kievitloop Bergen op Zoom (6)
17-11: Juul Van De Walleloop Kieldrecht (140)
11-11: Istanbul Marathon (3)
04-11: 13e Drechtstadloop Dordrecht (10)
04-11: New York City Marathon (2)
28-10: 36e Marathon Brabant Etten-Leur (61)
28-10: Marathon Ljubljana (7)
28-10: Brussels Marathon (1)
28-10: Ghent Marathon Gent (5)
21-10: 10 van AVR Rucphen (6)
21-10: Kievitloop Bergen op Zoom (4)
21-10: 43e Amsterdam Marathon (26)
14-10: 35e Marathon Eindhoven (10)
14-10: Linker Oevert marathon Antwerpen (5)
Recente video(s)
26e Inkelcross
26e Inkelcross in Evenement van de week
Tim van den Broeke na 26e Inkelcross
Atletiek Zeeland © 2018